sensor_id;sensor_type;location;lat;lon;timestamp;P1;durP1;ratioP1;P2;durP2;ratioP2
1885;SDS011;943;51.568;6.998;2022-07-25T00:01:59;13.07;;;10.90;;
1885;SDS011;943;51.568;6.998;2022-07-25T00:04:27;12.90;;;10.83;;
1885;SDS011;943;51.568;6.998;2022-07-25T00:06:55;13.00;;;11.63;;
1885;SDS011;943;51.568;6.998;2022-07-25T00:09:22;14.00;;;11.17;;
1885;SDS011;943;51.568;6.998;2022-07-25T00:11:50;12.53;;;11.30;;
1885;SDS011;943;51.568;6.998;2022-07-25T00:14:17;11.87;;;10.77;;
1885;SDS011;943;51.568;6.998;2022-07-25T00:16:45;12.83;;;10.70;;
1885;SDS011;943;51.568;6.998;2022-07-25T00:19:12;10.70;;;9.70;;
1885;SDS011;943;51.568;6.998;2022-07-25T00:21:41;11.60;;;10.50;;
1885;SDS011;943;51.568;6.998;2022-07-25T00:24:08;11.43;;;10.27;;
1885;SDS011;943;51.568;6.998;2022-07-25T00:26:36;11.90;;;10.27;;
1885;SDS011;943;51.568;6.998;2022-07-25T00:29:05;13.47;;;12.03;;
1885;SDS011;943;51.568;6.998;2022-07-25T00:31:33;13.47;;;10.57;;
1885;SDS011;943;51.568;6.998;2022-07-25T00:34:02;11.43;;;10.30;;
1885;SDS011;943;51.568;6.998;2022-07-25T00:36:30;11.53;;;10.43;;
1885;SDS011;943;51.568;6.998;2022-07-25T00:38:58;11.07;;;9.47;;
1885;SDS011;943;51.568;6.998;2022-07-25T00:41:25;11.47;;;9.70;;
1885;SDS011;943;51.568;6.998;2022-07-25T00:43:53;10.87;;;9.77;;
1885;SDS011;943;51.568;6.998;2022-07-25T00:46:21;11.70;;;10.57;;
1885;SDS011;943;51.568;6.998;2022-07-25T00:48:49;12.93;;;10.63;;
1885;SDS011;943;51.568;6.998;2022-07-25T00:51:17;12.40;;;11.10;;
1885;SDS011;943;51.568;6.998;2022-07-25T00:53:44;11.93;;;10.50;;
1885;SDS011;943;51.568;6.998;2022-07-25T00:56:13;11.80;;;10.70;;
1885;SDS011;943;51.568;6.998;2022-07-25T00:58:43;11.20;;;10.10;;
1885;SDS011;943;51.568;6.998;2022-07-25T01:01:10;12.73;;;11.30;;
1885;SDS011;943;51.568;6.998;2022-07-25T01:03:38;11.83;;;10.63;;
1885;SDS011;943;51.568;6.998;2022-07-25T01:06:06;16.03;;;11.60;;
1885;SDS011;943;51.568;6.998;2022-07-25T01:08:34;12.20;;;11.10;;
1885;SDS011;943;51.568;6.998;2022-07-25T01:11:02;11.97;;;10.77;;
1885;SDS011;943;51.568;6.998;2022-07-25T01:13:31;11.90;;;9.73;;
1885;SDS011;943;51.568;6.998;2022-07-25T01:16:00;11.77;;;10.60;;
1885;SDS011;943;51.568;6.998;2022-07-25T01:18:28;11.50;;;10.10;;
1885;SDS011;943;51.568;6.998;2022-07-25T01:20:56;9.90;;;8.90;;
1885;SDS011;943;51.568;6.998;2022-07-25T01:23:23;10.77;;;9.17;;
1885;SDS011;943;51.568;6.998;2022-07-25T01:25:51;10.30;;;9.40;;
1885;SDS011;943;51.568;6.998;2022-07-25T01:28:19;11.40;;;10.30;;
1885;SDS011;943;51.568;6.998;2022-07-25T01:30:47;10.07;;;9.07;;
1885;SDS011;943;51.568;6.998;2022-07-25T01:33:19;10.97;;;9.87;;
1885;SDS011;943;51.568;6.998;2022-07-25T01:35:48;11.37;;;10.27;;
1885;SDS011;943;51.568;6.998;2022-07-25T01:38:16;12.13;;;10.70;;
1885;SDS011;943;51.568;6.998;2022-07-25T01:40:44;11.50;;;10.27;;
1885;SDS011;943;51.568;6.998;2022-07-25T01:43:12;11.63;;;10.53;;
1885;SDS011;943;51.568;6.998;2022-07-25T01:45:40;10.90;;;9.90;;
1885;SDS011;943;51.568;6.998;2022-07-25T01:48:07;12.10;;;11.00;;
1885;SDS011;943;51.568;6.998;2022-07-25T01:50:35;12.87;;;11.50;;
1885;SDS011;943;51.568;6.998;2022-07-25T01:53:03;14.93;;;10.30;;
1885;SDS011;943;51.568;6.998;2022-07-25T01:55:31;11.47;;;10.27;;
1885;SDS011;943;51.568;6.998;2022-07-25T01:57:59;12.50;;;9.77;;
1885;SDS011;943;51.568;6.998;2022-07-25T02:00:26;11.47;;;10.23;;
1885;SDS011;943;51.568;6.998;2022-07-25T02:02:54;11.40;;;10.20;;
1885;SDS011;943;51.568;6.998;2022-07-25T02:05:40;13.00;;;11.50;;
1885;SDS011;943;51.568;6.998;2022-07-25T02:08:08;12.53;;;11.23;;
1885;SDS011;943;51.568;6.998;2022-07-25T02:10:37;13.47;;;10.13;;
1885;SDS011;943;51.568;6.998;2022-07-25T02:13:05;12.90;;;10.77;;
1885;SDS011;943;51.568;6.998;2022-07-25T02:15:34;11.90;;;10.70;;
1885;SDS011;943;51.568;6.998;2022-07-25T02:18:01;14.63;;;10.10;;
1885;SDS011;943;51.568;6.998;2022-07-25T02:20:30;12.00;;;10.30;;
1885;SDS011;943;51.568;6.998;2022-07-25T02:22:57;11.03;;;9.80;;
1885;SDS011;943;51.568;6.998;2022-07-25T02:25:25;12.20;;;10.90;;
1885;SDS011;943;51.568;6.998;2022-07-25T02:27:52;11.93;;;10.73;;
1885;SDS011;943;51.568;6.998;2022-07-25T02:30:20;11.33;;;10.23;;
1885;SDS011;943;51.568;6.998;2022-07-25T02:32:49;14.50;;;11.57;;
1885;SDS011;943;51.568;6.998;2022-07-25T02:35:16;11.90;;;10.70;;
1885;SDS011;943;51.568;6.998;2022-07-25T02:37:44;12.00;;;10.70;;
1885;SDS011;943;51.568;6.998;2022-07-25T02:40:12;12.00;;;10.53;;
1885;SDS011;943;51.568;6.998;2022-07-25T02:42:39;12.17;;;10.83;;
1885;SDS011;943;51.568;6.998;2022-07-25T02:45:07;12.20;;;10.53;;
1885;SDS011;943;51.568;6.998;2022-07-25T02:47:36;11.00;;;9.93;;
1885;SDS011;943;51.568;6.998;2022-07-25T02:50:04;10.33;;;8.80;;
1885;SDS011;943;51.568;6.998;2022-07-25T02:52:40;11.07;;;9.97;;
1885;SDS011;943;51.568;6.998;2022-07-25T02:55:09;11.50;;;10.07;;
1885;SDS011;943;51.568;6.998;2022-07-25T02:57:37;11.60;;;10.30;;
1885;SDS011;943;51.568;6.998;2022-07-25T03:00:05;11.13;;;9.80;;
1885;SDS011;943;51.568;6.998;2022-07-25T03:02:34;13.60;;;10.37;;
1885;SDS011;943;51.568;6.998;2022-07-25T03:05:04;11.47;;;10.27;;
1885;SDS011;943;51.568;6.998;2022-07-25T03:07:40;10.27;;;8.60;;
1885;SDS011;943;51.568;6.998;2022-07-25T03:10:11;12.57;;;11.20;;
1885;SDS011;943;51.568;6.998;2022-07-25T03:12:41;14.13;;;10.30;;
1885;SDS011;943;51.568;6.998;2022-07-25T03:15:11;12.50;;;10.83;;
1885;SDS011;943;51.568;6.998;2022-07-25T03:17:40;10.40;;;9.27;;
1885;SDS011;943;51.568;6.998;2022-07-25T03:20:08;13.83;;;11.17;;
1885;SDS011;943;51.568;6.998;2022-07-25T03:22:37;15.07;;;9.90;;
1885;SDS011;943;51.568;6.998;2022-07-25T03:25:05;12.73;;;11.43;;
1885;SDS011;943;51.568;6.998;2022-07-25T03:27:46;14.80;;;10.90;;
1885;SDS011;943;51.568;6.998;2022-07-25T03:30:15;11.80;;;10.60;;
1885;SDS011;943;51.568;6.998;2022-07-25T03:32:43;13.33;;;10.70;;
1885;SDS011;943;51.568;6.998;2022-07-25T03:35:11;12.03;;;10.83;;
1885;SDS011;943;51.568;6.998;2022-07-25T03:37:38;12.20;;;11.00;;
1885;SDS011;943;51.568;6.998;2022-07-25T03:40:06;13.57;;;11.27;;
1885;SDS011;943;51.568;6.998;2022-07-25T03:42:35;15.43;;;10.73;;
1885;SDS011;943;51.568;6.998;2022-07-25T03:45:03;14.63;;;9.90;;
1885;SDS011;943;51.568;6.998;2022-07-25T03:47:32;11.70;;;10.50;;
1885;SDS011;943;51.568;6.998;2022-07-25T03:49:59;14.13;;;10.60;;
1885;SDS011;943;51.568;6.998;2022-07-25T03:52:27;11.73;;;10.63;;
1885;SDS011;943;51.568;6.998;2022-07-25T03:54:54;11.17;;;10.07;;
1885;SDS011;943;51.568;6.998;2022-07-25T03:57:22;12.20;;;11.00;;
1885;SDS011;943;51.568;6.998;2022-07-25T03:59:49;12.83;;;10.87;;
1885;SDS011;943;51.568;6.998;2022-07-25T04:02:17;11.37;;;10.13;;
1885;SDS011;943;51.568;6.998;2022-07-25T04:04:44;11.33;;;10.10;;
1885;SDS011;943;51.568;6.998;2022-07-25T04:07:12;11.57;;;9.77;;
1885;SDS011;943;51.568;6.998;2022-07-25T04:09:40;12.87;;;9.73;;
1885;SDS011;943;51.568;6.998;2022-07-25T04:12:08;12.70;;;10.30;;
1885;SDS011;943;51.568;6.998;2022-07-25T04:14:36;11.93;;;9.43;;
1885;SDS011;943;51.568;6.998;2022-07-25T04:17:03;12.53;;;11.07;;
1885;SDS011;943;51.568;6.998;2022-07-25T04:19:31;13.50;;;10.43;;
1885;SDS011;943;51.568;6.998;2022-07-25T04:21:59;13.30;;;10.77;;
1885;SDS011;943;51.568;6.998;2022-07-25T04:24:27;10.47;;;9.37;;
1885;SDS011;943;51.568;6.998;2022-07-25T04:26:55;11.83;;;10.57;;
1885;SDS011;943;51.568;6.998;2022-07-25T04:29:23;12.87;;;10.67;;
1885;SDS011;943;51.568;6.998;2022-07-25T04:31:50;11.50;;;9.87;;
1885;SDS011;943;51.568;6.998;2022-07-25T04:34:18;10.83;;;9.70;;
1885;SDS011;943;51.568;6.998;2022-07-25T04:36:47;10.87;;;9.87;;
1885;SDS011;943;51.568;6.998;2022-07-25T04:39:14;13.27;;;10.70;;
1885;SDS011;943;51.568;6.998;2022-07-25T04:41:42;9.33;;;8.40;;
1885;SDS011;943;51.568;6.998;2022-07-25T04:44:09;10.57;;;9.57;;
1885;SDS011;943;51.568;6.998;2022-07-25T04:46:39;11.00;;;8.90;;
1885;SDS011;943;51.568;6.998;2022-07-25T04:49:06;11.57;;;9.30;;
1885;SDS011;943;51.568;6.998;2022-07-25T04:51:34;10.10;;;8.50;;
1885;SDS011;943;51.568;6.998;2022-07-25T04:54:02;11.33;;;8.60;;
1885;SDS011;943;51.568;6.998;2022-07-25T04:56:30;11.07;;;8.90;;
1885;SDS011;943;51.568;6.998;2022-07-25T04:58:58;12.10;;;9.67;;
1885;SDS011;943;51.568;6.998;2022-07-25T05:01:32;9.83;;;8.90;;
1885;SDS011;943;51.568;6.998;2022-07-25T05:04:01;9.90;;;8.87;;
1885;SDS011;943;51.568;6.998;2022-07-25T05:06:32;9.10;;;8.20;;
1885;SDS011;943;51.568;6.998;2022-07-25T05:08:59;8.27;;;7.07;;
1885;SDS011;943;51.568;6.998;2022-07-25T05:11:27;11.53;;;8.97;;
1885;SDS011;943;51.568;6.998;2022-07-25T05:13:55;9.13;;;8.23;;
1885;SDS011;943;51.568;6.998;2022-07-25T05:16:22;9.37;;;8.07;;
1885;SDS011;943;51.568;6.998;2022-07-25T05:18:50;9.70;;;8.10;;
1885;SDS011;943;51.568;6.998;2022-07-25T05:21:17;9.50;;;8.20;;
1885;SDS011;943;51.568;6.998;2022-07-25T05:23:45;8.73;;;7.70;;
1885;SDS011;943;51.568;6.998;2022-07-25T05:26:13;9.57;;;8.57;;
1885;SDS011;943;51.568;6.998;2022-07-25T05:28:41;10.80;;;8.40;;
1885;SDS011;943;51.568;6.998;2022-07-25T05:31:09;10.40;;;7.77;;
1885;SDS011;943;51.568;6.998;2022-07-25T05:33:37;9.63;;;8.63;;
1885;SDS011;943;51.568;6.998;2022-07-25T05:36:05;8.90;;;8.10;;
1885;SDS011;943;51.568;6.998;2022-07-25T05:38:34;8.77;;;7.87;;
1885;SDS011;943;51.568;6.998;2022-07-25T05:41:02;9.47;;;7.80;;
1885;SDS011;943;51.568;6.998;2022-07-25T05:43:30;7.93;;;7.13;;
1885;SDS011;943;51.568;6.998;2022-07-25T05:46:02;7.87;;;7.07;;
1885;SDS011;943;51.568;6.998;2022-07-25T05:48:31;7.57;;;6.83;;
1885;SDS011;943;51.568;6.998;2022-07-25T05:50:58;9.83;;;7.70;;
1885;SDS011;943;51.568;6.998;2022-07-25T05:53:26;9.10;;;7.47;;
1885;SDS011;943;51.568;6.998;2022-07-25T05:55:54;7.90;;;7.10;;
1885;SDS011;943;51.568;6.998;2022-07-25T05:58:22;8.17;;;7.07;;
1885;SDS011;943;51.568;6.998;2022-07-25T06:00:55;6.90;;;6.20;;
1885;SDS011;943;51.568;6.998;2022-07-25T06:03:24;9.20;;;7.07;;
1885;SDS011;943;51.568;6.998;2022-07-25T06:05:53;7.50;;;6.50;;
1885;SDS011;943;51.568;6.998;2022-07-25T06:08:22;10.70;;;6.87;;
1885;SDS011;943;51.568;6.998;2022-07-25T06:10:50;6.97;;;6.10;;
1885;SDS011;943;51.568;6.998;2022-07-25T06:13:18;9.67;;;6.87;;
1885;SDS011;943;51.568;6.998;2022-07-25T06:15:48;6.83;;;6.10;;
1885;SDS011;943;51.568;6.998;2022-07-25T06:18:16;8.00;;;6.27;;
1885;SDS011;943;51.568;6.998;2022-07-25T06:20:43;7.07;;;6.30;;
1885;SDS011;943;51.568;6.998;2022-07-25T06:23:11;8.40;;;6.40;;
1885;SDS011;943;51.568;6.998;2022-07-25T06:25:39;9.57;;;6.10;;
1885;SDS011;943;51.568;6.998;2022-07-25T06:28:06;9.83;;;7.10;;
1885;SDS011;943;51.568;6.998;2022-07-25T06:30:35;7.53;;;6.50;;
1885;SDS011;943;51.568;6.998;2022-07-25T06:33:04;9.83;;;6.60;;
1885;SDS011;943;51.568;6.998;2022-07-25T06:35:31;9.70;;;6.90;;
1885;SDS011;943;51.568;6.998;2022-07-25T06:37:59;7.03;;;6.17;;
1885;SDS011;943;51.568;6.998;2022-07-25T06:40:27;7.03;;;6.33;;
1885;SDS011;943;51.568;6.998;2022-07-25T06:42:55;6.63;;;6.00;;
1885;SDS011;943;51.568;6.998;2022-07-25T06:45:24;6.97;;;6.27;;
1885;SDS011;943;51.568;6.998;2022-07-25T06:47:52;10.17;;;6.67;;
1885;SDS011;943;51.568;6.998;2022-07-25T06:50:20;7.23;;;5.53;;
1885;SDS011;943;51.568;6.998;2022-07-25T06:52:47;9.17;;;6.87;;
1885;SDS011;943;51.568;6.998;2022-07-25T06:55:15;9.20;;;7.03;;
1885;SDS011;943;51.568;6.998;2022-07-25T06:57:45;7.50;;;6.70;;
1885;SDS011;943;51.568;6.998;2022-07-25T07:00:13;7.10;;;6.40;;
1885;SDS011;943;51.568;6.998;2022-07-25T07:02:48;7.90;;;7.10;;
1885;SDS011;943;51.568;6.998;2022-07-25T07:05:23;7.83;;;7.13;;
1885;SDS011;943;51.568;6.998;2022-07-25T07:07:57;7.87;;;6.80;;
1885;SDS011;943;51.568;6.998;2022-07-25T07:10:26;8.50;;;6.43;;
1885;SDS011;943;51.568;6.998;2022-07-25T07:13:05;7.63;;;6.77;;
1885;SDS011;943;51.568;6.998;2022-07-25T07:15:38;7.60;;;6.80;;
1885;SDS011;943;51.568;6.998;2022-07-25T07:20:56;9.30;;;6.67;;
1885;SDS011;943;51.568;6.998;2022-07-25T07:23:24;7.90;;;6.30;;
1885;SDS011;943;51.568;6.998;2022-07-25T07:25:54;7.47;;;6.67;;
1885;SDS011;943;51.568;6.998;2022-07-25T07:28:23;7.03;;;6.33;;
1885;SDS011;943;51.568;6.998;2022-07-25T07:30:52;6.43;;;5.83;;
1885;SDS011;943;51.568;6.998;2022-07-25T07:33:41;7.43;;;5.67;;
1885;SDS011;943;51.568;6.998;2022-07-25T07:36:09;6.90;;;6.20;;
1885;SDS011;943;51.568;6.998;2022-07-25T07:38:36;6.40;;;5.33;;
1885;SDS011;943;51.568;6.998;2022-07-25T07:41:05;7.05;;;6.35;;
1885;SDS011;943;51.568;6.998;2022-07-25T07:43:34;7.78;;;5.97;;
1885;SDS011;943;51.568;6.998;2022-07-25T07:46:02;6.57;;;5.97;;
1885;SDS011;943;51.568;6.998;2022-07-25T07:48:30;5.85;;;5.35;;
1885;SDS011;943;51.568;6.998;2022-07-25T07:51:00;6.63;;;6.03;;
1885;SDS011;943;51.568;6.998;2022-07-25T07:53:28;8.88;;;6.57;;
1885;SDS011;943;51.568;6.998;2022-07-25T07:56:17;8.20;;;6.82;;
1885;SDS011;943;51.568;6.998;2022-07-25T07:58:46;6.43;;;5.68;;
1885;SDS011;943;51.568;6.998;2022-07-25T08:01:14;8.10;;;6.70;;
1885;SDS011;943;51.568;6.998;2022-07-25T08:03:42;8.13;;;6.93;;
1885;SDS011;943;51.568;6.998;2022-07-25T08:06:10;7.80;;;6.83;;
1885;SDS011;943;51.568;6.998;2022-07-25T08:08:38;8.73;;;7.70;;
1885;SDS011;943;51.568;6.998;2022-07-25T08:11:05;9.70;;;6.13;;
1885;SDS011;943;51.568;6.998;2022-07-25T08:13:34;13.20;;;6.93;;
1885;SDS011;943;51.568;6.998;2022-07-25T08:16:04;7.90;;;6.07;;
1885;SDS011;943;51.568;6.998;2022-07-25T08:18:32;7.40;;;6.70;;
1885;SDS011;943;51.568;6.998;2022-07-25T08:21:01;8.37;;;6.90;;
1885;SDS011;943;51.568;6.998;2022-07-25T08:23:32;10.00;;;7.00;;
1885;SDS011;943;51.568;6.998;2022-07-25T08:26:04;8.67;;;7.57;;
1885;SDS011;943;51.568;6.998;2022-07-25T08:28:33;8.63;;;6.17;;
1885;SDS011;943;51.568;6.998;2022-07-25T08:31:02;7.70;;;6.67;;
1885;SDS011;943;51.568;6.998;2022-07-25T08:33:29;11.40;;;6.80;;
1885;SDS011;943;51.568;6.998;2022-07-25T08:35:57;6.53;;;5.83;;
1885;SDS011;943;51.568;6.998;2022-07-25T08:38:26;9.90;;;6.50;;
1885;SDS011;943;51.568;6.998;2022-07-25T08:40:55;7.30;;;6.60;;
1885;SDS011;943;51.568;6.998;2022-07-25T08:43:25;7.53;;;5.97;;
1885;SDS011;943;51.568;6.998;2022-07-25T08:45:59;8.57;;;7.13;;
1885;SDS011;943;51.568;6.998;2022-07-25T08:48:30;8.73;;;6.87;;
1885;SDS011;943;51.568;6.998;2022-07-25T08:50:58;8.17;;;6.73;;
1885;SDS011;943;51.568;6.998;2022-07-25T08:53:28;6.90;;;6.20;;
1885;SDS011;943;51.568;6.998;2022-07-25T08:55:59;9.07;;;6.67;;
1885;SDS011;943;51.568;6.998;2022-07-25T08:58:41;6.53;;;5.90;;
1885;SDS011;943;51.568;6.998;2022-07-25T09:01:10;7.67;;;6.93;;
1885;SDS011;943;51.568;6.998;2022-07-25T09:03:41;8.57;;;6.70;;
1885;SDS011;943;51.568;6.998;2022-07-25T09:06:14;7.60;;;6.73;;
1885;SDS011;943;51.568;6.998;2022-07-25T09:08:54;14.47;;;6.90;;
1885;SDS011;943;51.568;6.998;2022-07-25T09:14:04;11.90;;;7.33;;
1885;SDS011;943;51.568;6.998;2022-07-25T09:16:41;7.47;;;6.37;;
1885;SDS011;943;51.568;6.998;2022-07-25T09:19:14;8.23;;;7.20;;
1885;SDS011;943;51.568;6.998;2022-07-25T09:21:58;7.60;;;6.30;;
1885;SDS011;943;51.568;6.998;2022-07-25T09:24:35;9.90;;;6.77;;
1885;SDS011;943;51.568;6.998;2022-07-25T09:27:11;9.20;;;6.70;;
1885;SDS011;943;51.568;6.998;2022-07-25T09:29:40;8.83;;;6.20;;
1885;SDS011;943;51.568;6.998;2022-07-25T09:32:33;9.97;;;7.30;;
1885;SDS011;943;51.568;6.998;2022-07-25T09:35:01;10.97;;;7.00;;
1885;SDS011;943;51.568;6.998;2022-07-25T09:37:29;7.63;;;6.83;;
1885;SDS011;943;51.568;6.998;2022-07-25T09:39:57;7.23;;;6.10;;
1885;SDS011;943;51.568;6.998;2022-07-25T09:42:30;7.50;;;6.80;;
1885;SDS011;943;51.568;6.998;2022-07-25T10:09:24;10.90;;;6.67;;
1885;SDS011;943;51.568;6.998;2022-07-25T10:12:06;7.83;;;6.80;;
1885;SDS011;943;51.568;6.998;2022-07-25T10:14:40;11.77;;;7.20;;
1885;SDS011;943;51.568;6.998;2022-07-25T10:17:08;7.73;;;6.30;;
1885;SDS011;943;51.568;6.998;2022-07-25T10:19:47;8.03;;;7.17;;
1885;SDS011;943;51.568;6.998;2022-07-25T10:22:22;9.37;;;6.30;;
1885;SDS011;943;51.568;6.998;2022-07-25T10:25:24;8.10;;;6.20;;
1885;SDS011;943;51.568;6.998;2022-07-25T10:27:53;10.13;;;6.23;;
1885;SDS011;943;51.568;6.998;2022-07-25T10:30:35;6.63;;;5.90;;
1885;SDS011;943;51.568;6.998;2022-07-25T10:33:17;8.60;;;5.87;;
1885;SDS011;943;51.568;6.998;2022-07-25T10:35:46;11.93;;;6.83;;
1885;SDS011;943;51.568;6.998;2022-07-25T10:38:22;9.20;;;6.47;;
1885;SDS011;943;51.568;6.998;2022-07-25T10:40:53;9.00;;;6.07;;
1885;SDS011;943;51.568;6.998;2022-07-25T10:43:28;7.90;;;6.40;;
1885;SDS011;943;51.568;6.998;2022-07-25T10:46:16;8.43;;;5.80;;
1885;SDS011;943;51.568;6.998;2022-07-25T10:48:58;7.60;;;5.47;;
1885;SDS011;943;51.568;6.998;2022-07-25T10:51:34;9.50;;;5.93;;
1885;SDS011;943;51.568;6.998;2022-07-25T10:54:11;8.73;;;5.97;;
1885;SDS011;943;51.568;6.998;2022-07-25T10:56:52;8.20;;;5.60;;
1885;SDS011;943;51.568;6.998;2022-07-25T10:59:25;8.87;;;5.00;;
1885;SDS011;943;51.568;6.998;2022-07-25T11:02:03;8.33;;;5.90;;
1885;SDS011;943;51.568;6.998;2022-07-25T11:04:43;7.87;;;5.83;;
1885;SDS011;943;51.568;6.998;2022-07-25T11:07:26;7.27;;;5.53;;
1885;SDS011;943;51.568;6.998;2022-07-25T11:10:02;6.73;;;5.47;;
1885;SDS011;943;51.568;6.998;2022-07-25T11:12:32;8.57;;;5.10;;
1885;SDS011;943;51.568;6.998;2022-07-25T11:15:01;6.90;;;4.63;;
1885;SDS011;943;51.568;6.998;2022-07-25T11:17:48;5.93;;;5.20;;
1885;SDS011;943;51.568;6.998;2022-07-25T11:20:18;5.87;;;4.67;;
1885;SDS011;943;51.568;6.998;2022-07-25T11:22:50;7.07;;;4.73;;
1885;SDS011;943;51.568;6.998;2022-07-25T11:25:21;6.33;;;4.57;;
1885;SDS011;943;51.568;6.998;2022-07-25T11:27:56;6.43;;;4.80;;
1885;SDS011;943;51.568;6.998;2022-07-25T11:30:28;6.10;;;4.90;;
1885;SDS011;943;51.568;6.998;2022-07-25T11:32:57;5.60;;;4.10;;
1885;SDS011;943;51.568;6.998;2022-07-25T11:35:29;7.40;;;4.10;;
1885;SDS011;943;51.568;6.998;2022-07-25T11:38:00;4.70;;;3.83;;
1885;SDS011;943;51.568;6.998;2022-07-25T11:40:31;6.30;;;5.20;;
1885;SDS011;943;51.568;6.998;2022-07-25T11:43:17;5.70;;;4.37;;
1885;SDS011;943;51.568;6.998;2022-07-25T11:51:13;7.23;;;4.40;;
1885;SDS011;943;51.568;6.998;2022-07-25T11:53:46;6.23;;;5.13;;
1885;SDS011;943;51.568;6.998;2022-07-25T11:56:18;8.30;;;5.00;;
1885;SDS011;943;51.568;6.998;2022-07-25T11:59:09;7.03;;;4.37;;
1885;SDS011;943;51.568;6.998;2022-07-25T12:01:39;5.40;;;4.33;;
1885;SDS011;943;51.568;6.998;2022-07-25T12:04:15;5.63;;;3.80;;
1885;SDS011;943;51.568;6.998;2022-07-25T12:06:46;5.27;;;4.47;;
1885;SDS011;943;51.568;6.998;2022-07-25T12:09:17;5.47;;;4.63;;
1885;SDS011;943;51.568;6.998;2022-07-25T12:11:48;8.37;;;4.77;;
1885;SDS011;943;51.568;6.998;2022-07-25T12:14:15;5.90;;;4.00;;
1885;SDS011;943;51.568;6.998;2022-07-25T12:16:43;4.93;;;3.73;;
1885;SDS011;943;51.568;6.998;2022-07-25T12:19:18;7.07;;;3.97;;
1885;SDS011;943;51.568;6.998;2022-07-25T12:21:47;5.37;;;3.57;;
1885;SDS011;943;51.568;6.998;2022-07-25T12:24:16;8.43;;;3.87;;
1885;SDS011;943;51.568;6.998;2022-07-25T12:26:43;5.60;;;3.67;;
1885;SDS011;943;51.568;6.998;2022-07-25T12:29:11;7.83;;;4.60;;
1885;SDS011;943;51.568;6.998;2022-07-25T12:31:38;6.73;;;3.50;;
1885;SDS011;943;51.568;6.998;2022-07-25T12:34:06;9.90;;;4.63;;
1885;SDS011;943;51.568;6.998;2022-07-25T12:36:34;10.00;;;3.97;;
1885;SDS011;943;51.568;6.998;2022-07-25T12:39:07;7.80;;;3.97;;
1885;SDS011;943;51.568;6.998;2022-07-25T12:41:36;5.90;;;3.70;;
1885;SDS011;943;51.568;6.998;2022-07-25T12:44:05;5.83;;;3.40;;
1885;SDS011;943;51.568;6.998;2022-07-25T12:46:33;7.23;;;3.73;;
1885;SDS011;943;51.568;6.998;2022-07-25T12:49:03;4.90;;;3.10;;
1885;SDS011;943;51.568;6.998;2022-07-25T12:51:32;4.70;;;3.77;;
1885;SDS011;943;51.568;6.998;2022-07-25T12:53:59;7.20;;;3.10;;
1885;SDS011;943;51.568;6.998;2022-07-25T12:56:28;10.17;;;3.87;;
1885;SDS011;943;51.568;6.998;2022-07-25T12:58:56;6.23;;;3.70;;
1885;SDS011;943;51.568;6.998;2022-07-25T13:01:24;6.83;;;4.30;;
1885;SDS011;943;51.568;6.998;2022-07-25T13:03:52;6.80;;;3.50;;
1885;SDS011;943;51.568;6.998;2022-07-25T13:06:19;7.33;;;3.20;;
1885;SDS011;943;51.568;6.998;2022-07-25T13:08:47;8.23;;;3.60;;
1885;SDS011;943;51.568;6.998;2022-07-25T13:11:15;5.13;;;3.10;;
1885;SDS011;943;51.568;6.998;2022-07-25T13:13:43;6.60;;;3.53;;
1885;SDS011;943;51.568;6.998;2022-07-25T13:16:10;4.97;;;3.70;;
1885;SDS011;943;51.568;6.998;2022-07-25T13:18:39;6.43;;;4.03;;
1885;SDS011;943;51.568;6.998;2022-07-25T13:21:07;4.63;;;3.10;;
1885;SDS011;943;51.568;6.998;2022-07-25T13:23:35;7.60;;;3.03;;
1885;SDS011;943;51.568;6.998;2022-07-25T13:26:04;5.40;;;3.00;;
1885;SDS011;943;51.568;6.998;2022-07-25T13:28:34;6.70;;;3.50;;
1885;SDS011;943;51.568;6.998;2022-07-25T13:31:02;7.47;;;3.60;;
1885;SDS011;943;51.568;6.998;2022-07-25T13:33:33;8.30;;;3.20;;
1885;SDS011;943;51.568;6.998;2022-07-25T13:36:01;9.60;;;3.30;;
1885;SDS011;943;51.568;6.998;2022-07-25T13:38:29;6.13;;;3.43;;
1885;SDS011;943;51.568;6.998;2022-07-25T13:41:00;10.50;;;4.33;;
1885;SDS011;943;51.568;6.998;2022-07-25T13:43:28;6.00;;;3.80;;
1885;SDS011;943;51.568;6.998;2022-07-25T13:45:55;5.33;;;3.87;;
1885;SDS011;943;51.568;6.998;2022-07-25T13:48:24;5.07;;;3.67;;
1885;SDS011;943;51.568;6.998;2022-07-25T13:50:56;6.67;;;4.47;;
1885;SDS011;943;51.568;6.998;2022-07-25T13:53:30;7.93;;;4.43;;
1885;SDS011;943;51.568;6.998;2022-07-25T13:55:58;6.23;;;3.73;;
1885;SDS011;943;51.568;6.998;2022-07-25T13:58:27;5.47;;;3.67;;
1885;SDS011;943;51.568;6.998;2022-07-25T14:01:08;4.27;;;3.43;;
1885;SDS011;943;51.568;6.998;2022-07-25T14:03:38;5.63;;;3.10;;
1885;SDS011;943;51.568;6.998;2022-07-25T14:06:08;4.80;;;3.67;;
1885;SDS011;943;51.568;6.998;2022-07-25T14:08:40;6.33;;;3.13;;
1885;SDS011;943;51.568;6.998;2022-07-25T14:11:07;5.70;;;3.80;;
1885;SDS011;943;51.568;6.998;2022-07-25T14:13:35;6.80;;;3.80;;
1885;SDS011;943;51.568;6.998;2022-07-25T14:16:03;4.80;;;3.40;;
1885;SDS011;943;51.568;6.998;2022-07-25T14:18:32;8.73;;;4.27;;
1885;SDS011;943;51.568;6.998;2022-07-25T14:21:00;6.47;;;3.80;;
1885;SDS011;943;51.568;6.998;2022-07-25T14:23:27;6.27;;;3.40;;
1885;SDS011;943;51.568;6.998;2022-07-25T14:25:56;5.90;;;3.00;;
1885;SDS011;943;51.568;6.998;2022-07-25T14:28:24;5.50;;;3.67;;
1885;SDS011;943;51.568;6.998;2022-07-25T14:30:52;4.27;;;3.23;;
1885;SDS011;943;51.568;6.998;2022-07-25T14:33:20;3.90;;;2.97;;
1885;SDS011;943;51.568;6.998;2022-07-25T14:35:49;6.50;;;3.10;;
1885;SDS011;943;51.568;6.998;2022-07-25T14:38:17;7.33;;;3.40;;
1885;SDS011;943;51.568;6.998;2022-07-25T14:40:49;7.60;;;3.07;;
1885;SDS011;943;51.568;6.998;2022-07-25T14:43:41;10.20;;;4.17;;
1885;SDS011;943;51.568;6.998;2022-07-25T14:46:14;6.00;;;3.90;;
1885;SDS011;943;51.568;6.998;2022-07-25T14:48:42;15.23;;;6.17;;
1885;SDS011;943;51.568;6.998;2022-07-25T14:51:10;7.67;;;4.90;;
1885;SDS011;943;51.568;6.998;2022-07-25T14:53:38;6.37;;;5.20;;
1885;SDS011;943;51.568;6.998;2022-07-25T14:56:06;5.83;;;5.07;;
1885;SDS011;943;51.568;6.998;2022-07-25T14:58:34;9.83;;;6.27;;
1885;SDS011;943;51.568;6.998;2022-07-25T15:01:03;9.83;;;6.20;;
1885;SDS011;943;51.568;6.998;2022-07-25T15:03:31;9.23;;;5.87;;
1885;SDS011;943;51.568;6.998;2022-07-25T15:05:59;6.80;;;5.33;;
1885;SDS011;943;51.568;6.998;2022-07-25T15:08:29;7.00;;;6.30;;
1885;SDS011;943;51.568;6.998;2022-07-25T15:10:56;8.03;;;5.67;;
1885;SDS011;943;51.568;6.998;2022-07-25T15:13:25;6.10;;;5.20;;
1885;SDS011;943;51.568;6.998;2022-07-25T15:15:57;7.23;;;6.50;;
1885;SDS011;943;51.568;6.998;2022-07-25T15:18:27;8.07;;;6.60;;
1885;SDS011;943;51.568;6.998;2022-07-25T15:20:55;10.03;;;6.00;;
1885;SDS011;943;51.568;6.998;2022-07-25T15:23:23;7.77;;;5.93;;
1885;SDS011;943;51.568;6.998;2022-07-25T15:25:56;7.70;;;6.17;;
1885;SDS011;943;51.568;6.998;2022-07-25T15:28:28;11.53;;;7.20;;
1885;SDS011;943;51.568;6.998;2022-07-25T15:30:59;12.73;;;6.07;;
1885;SDS011;943;51.568;6.998;2022-07-25T15:33:27;11.03;;;5.30;;
1885;SDS011;943;51.568;6.998;2022-07-25T15:35:55;8.87;;;5.23;;
1885;SDS011;943;51.568;6.998;2022-07-25T15:38:24;5.87;;;4.47;;
1885;SDS011;943;51.568;6.998;2022-07-25T15:40:54;6.23;;;4.50;;
1885;SDS011;943;51.568;6.998;2022-07-25T15:43:23;4.80;;;3.87;;
1885;SDS011;943;51.568;6.998;2022-07-25T15:45:52;8.03;;;4.00;;
1885;SDS011;943;51.568;6.998;2022-07-25T15:48:19;6.87;;;3.40;;
1885;SDS011;943;51.568;6.998;2022-07-25T15:50:49;6.47;;;3.60;;
1885;SDS011;943;51.568;6.998;2022-07-25T15:53:17;5.57;;;3.43;;
1885;SDS011;943;51.568;6.998;2022-07-25T15:55:45;7.53;;;3.17;;
1885;SDS011;943;51.568;6.998;2022-07-25T15:58:13;5.93;;;2.30;;
1885;SDS011;943;51.568;6.998;2022-07-25T16:00:41;5.13;;;2.27;;
1885;SDS011;943;51.568;6.998;2022-07-25T16:03:09;5.67;;;2.60;;
1885;SDS011;943;51.568;6.998;2022-07-25T16:05:39;6.43;;;2.87;;
1885;SDS011;943;51.568;6.998;2022-07-25T16:08:10;6.50;;;3.60;;
1885;SDS011;943;51.568;6.998;2022-07-25T16:10:38;5.80;;;2.23;;
1885;SDS011;943;51.568;6.998;2022-07-25T16:13:07;9.70;;;2.97;;
1885;SDS011;943;51.568;6.998;2022-07-25T16:15:35;5.47;;;2.60;;